createdAt,value
2019-04-11T00:00:15.883Z,997.14
2019-04-11T00:01:16.379Z,997.12
2019-04-11T00:02:16.418Z,997.10
2019-04-11T00:03:15.990Z,997.16
2019-04-11T00:04:16.025Z,997.16
2019-04-11T00:05:16.883Z,997.15
2019-04-11T00:06:17.204Z,997.13
2019-04-11T00:07:16.231Z,997.13
2019-04-11T00:08:16.172Z,997.16
2019-04-11T00:09:16.714Z,997.12
2019-04-11T00:10:17.224Z,997.14
2019-04-11T00:11:16.283Z,997.15
2019-04-11T00:12:16.601Z,997.19
2019-04-11T00:13:23.385Z,997.16
2019-04-11T00:14:16.385Z,997.16
2019-04-11T00:15:16.422Z,997.16
2019-04-11T00:16:17.220Z,997.18
2019-04-11T00:17:17.492Z,997.16
2019-04-11T00:18:16.705Z,997.12
2019-04-11T00:19:16.566Z,997.18
2019-04-11T00:20:16.602Z,997.16
2019-04-11T00:21:17.005Z,997.19
2019-04-11T00:22:17.368Z,997.21
2019-04-11T00:23:16.758Z,997.18
2019-04-11T00:24:16.745Z,997.20
2019-04-11T00:25:17.702Z,997.23
2019-04-11T00:26:17.052Z,997.24
2019-04-11T00:27:17.169Z,997.22
2019-04-11T00:28:17.378Z,997.25
2019-04-11T00:29:16.923Z,997.22
2019-04-11T00:30:17.824Z,997.24
2019-04-11T00:31:17.005Z,997.24
2019-04-11T00:32:17.193Z,997.22
2019-04-11T00:33:18.134Z,997.22
2019-04-11T00:34:17.103Z,997.20
2019-04-11T00:35:17.597Z,997.23
2019-04-11T00:36:17.175Z,997.25
2019-04-11T00:37:17.211Z,997.24
2019-04-11T00:38:18.024Z,997.30
2019-04-11T00:39:17.345Z,997.29
2019-04-11T00:40:18.620Z,997.35
2019-04-11T00:41:17.563Z,997.29
2019-04-11T00:42:18.626Z,997.30
2019-04-11T00:43:28.582Z,997.33
2019-04-11T00:44:17.461Z,997.38
2019-04-11T00:45:17.497Z,997.34
2019-04-11T00:46:18.296Z,997.34
2019-04-11T00:47:17.570Z,997.37
2019-04-11T00:48:17.645Z,997.35
2019-04-11T00:49:18.678Z,997.39
2019-04-11T00:50:17.685Z,997.35
2019-04-11T00:51:18.728Z,997.32
2019-04-11T00:52:17.749Z,997.36
2019-04-11T00:53:18.921Z,997.40
2019-04-11T00:54:18.476Z,997.35
2019-04-11T00:55:17.857Z,997.40
2019-04-11T00:56:17.919Z,997.38
2019-04-11T00:57:18.962Z,997.39
2019-04-11T00:58:17.964Z,997.41
2019-04-11T00:59:18.304Z,997.39
2019-04-11T01:00:18.659Z,997.39
2019-04-11T01:01:18.069Z,997.38
2019-04-11T01:02:18.106Z,997.40
2019-04-11T01:03:18.141Z,997.38
2019-04-11T01:04:18.176Z,997.39
2019-04-11T01:05:18.302Z,997.42
2019-04-11T01:06:18.320Z,997.44
2019-04-11T01:07:18.545Z,997.46
2019-04-11T01:08:18.319Z,997.42
2019-04-11T01:09:18.354Z,997.45
2019-04-11T01:10:18.389Z,997.43
2019-04-11T01:11:19.462Z,997.42
2019-04-11T01:12:18.666Z,997.41
2019-04-11T01:13:18.546Z,997.40
2019-04-11T01:14:18.533Z,997.41
2019-04-11T01:15:19.567Z,997.44
2019-04-11T01:16:18.604Z,997.49
2019-04-11T01:17:18.641Z,997.46
2019-04-11T01:18:19.747Z,997.47
2019-04-11T01:19:18.712Z,997.44
2019-04-11T01:20:19.507Z,997.42
2019-04-11T01:21:19.938Z,997.45
2019-04-11T01:22:18.817Z,997.42
2019-04-11T01:23:18.860Z,997.47
2019-04-11T01:24:19.759Z,997.47
2019-04-11T01:25:20.040Z,997.48
2019-04-11T01:26:19.196Z,997.49
2019-04-11T01:27:18.997Z,997.46
2019-04-11T01:28:19.034Z,997.46
2019-04-11T01:29:19.678Z,997.46
2019-04-11T01:30:19.102Z,997.46
2019-04-11T01:31:19.721Z,997.46
2019-04-11T01:32:19.174Z,997.43
2019-04-11T01:33:20.624Z,997.47
2019-04-11T01:34:20.242Z,997.48
2019-04-11T01:35:19.372Z,997.44
2019-04-11T01:36:19.325Z,997.45
2019-04-11T01:37:19.720Z,997.43
2019-04-11T01:38:21.343Z,997.43
2019-04-11T01:39:19.423Z,997.46
2019-04-11T01:40:19.467Z,997.41
2019-04-11T01:41:20.517Z,997.50
2019-04-11T01:42:19.597Z,997.45
2019-04-11T01:43:19.837Z,997.46
2019-04-11T01:44:20.690Z,997.45
2019-04-11T01:45:19.636Z,997.52
2019-04-11T01:46:20.147Z,997.49
2019-04-11T01:47:20.484Z,997.50
2019-04-11T01:48:19.748Z,997.49
2019-04-11T01:49:19.839Z,997.51
2019-04-11T01:50:20.747Z,997.46
2019-04-11T01:51:19.851Z,997.49
2019-04-11T01:52:20.348Z,997.49
2019-04-11T01:53:19.924Z,997.54
2019-04-11T01:54:19.956Z,997.51
2019-04-11T01:55:20.665Z,997.50
2019-04-11T01:56:21.049Z,997.49
2019-04-11T01:57:20.116Z,997.53
2019-04-11T01:58:20.097Z,997.56
2019-04-11T01:59:20.142Z,997.52
2019-04-11T02:00:20.170Z,997.51
2019-04-11T02:01:20.943Z,997.51
2019-04-11T02:02:21.239Z,997.54
2019-04-11T02:03:21.190Z,997.55
2019-04-11T02:04:21.533Z,997.53
2019-04-11T02:05:20.950Z,997.53
2019-04-11T02:06:21.394Z,997.54
2019-04-11T02:07:20.632Z,997.56
2019-04-11T02:08:20.453Z,997.53
2019-04-11T02:09:20.486Z,997.59
2019-04-11T02:10:21.027Z,997.58
2019-04-11T02:11:21.309Z,997.57
2019-04-11T02:12:20.841Z,997.52
2019-04-11T02:13:20.639Z,997.58
2019-04-11T02:14:21.498Z,997.56
2019-04-11T02:15:21.930Z,997.57
2019-04-11T02:16:21.014Z,997.52
2019-04-11T02:17:20.771Z,997.60
2019-04-11T02:18:21.489Z,997.58
2019-04-11T02:19:20.843Z,997.56
2019-04-11T02:20:20.963Z,997.60
2019-04-11T02:21:21.856Z,997.59
2019-04-11T02:22:20.949Z,997.54
2019-04-11T02:23:21.548Z,997.61
2019-04-11T02:24:21.021Z,997.61
2019-04-11T02:25:21.057Z,997.58
2019-04-11T02:26:21.098Z,997.61
2019-04-11T02:27:21.218Z,997.63
2019-04-11T02:28:22.419Z,997.64
2019-04-11T02:29:21.415Z,997.64
2019-04-11T02:30:22.762Z,997.64
2019-04-11T02:31:22.866Z,997.65
2019-04-11T02:32:24.531Z,997.69
2019-04-11T02:33:21.926Z,997.70
2019-04-11T02:34:21.375Z,997.71
2019-04-11T02:35:22.686Z,997.70
2019-04-11T02:36:21.445Z,997.71
2019-04-11T02:37:21.935Z,997.72
2019-04-11T02:38:23.572Z,997.71
2019-04-11T02:39:22.920Z,997.74
2019-04-11T02:40:22.971Z,997.75
2019-04-11T02:41:21.658Z,997.71
2019-04-11T02:42:23.194Z,997.73
2019-04-11T02:43:22.971Z,997.75
2019-04-11T02:44:39.470Z,997.74
2019-04-11T02:45:30.703Z,997.79
2019-04-11T02:46:32.297Z,997.82
2019-04-11T02:47:25.387Z,997.80
2019-04-11T02:48:22.112Z,997.76
2019-04-11T02:49:23.466Z,997.80
2019-04-11T02:50:24.256Z,997.79
2019-04-11T02:51:22.838Z,997.83
2019-04-11T02:52:22.946Z,997.78
2019-04-11T02:53:23.758Z,997.80
2019-04-11T02:54:24.446Z,997.81
2019-04-11T02:55:22.113Z,997.83
2019-04-11T02:56:23.866Z,997.83
2019-04-11T02:57:23.408Z,997.86
2019-04-11T02:58:23.102Z,997.81
2019-04-11T02:59:22.257Z,997.90
2019-04-11T03:00:24.269Z,997.84
2019-04-11T03:01:24.116Z,997.86
2019-04-11T03:02:23.925Z,997.90
2019-04-11T03:03:23.192Z,997.92
2019-04-11T03:04:24.262Z,997.89
2019-04-11T03:05:22.469Z,997.90
2019-04-11T03:06:23.428Z,997.90
2019-04-11T03:07:22.785Z,997.93
2019-04-11T03:08:24.107Z,997.96
2019-04-11T03:09:24.124Z,997.97
2019-04-11T03:10:22.651Z,997.99
2019-04-11T03:11:24.147Z,998.03
2019-04-11T03:12:24.014Z,998.03
2019-04-11T03:13:23.278Z,998.07
2019-04-11T03:14:23.337Z,998.06
2019-04-11T03:15:37.564Z,998.03
2019-04-11T03:16:35.115Z,998.07
2019-04-11T03:17:28.658Z,998.05
2019-04-11T03:18:40.722Z,998.01
2019-04-11T03:19:37.546Z,998.03
2019-04-11T03:20:31.712Z,998.05
2019-04-11T03:21:24.467Z,998.04
2019-04-11T03:22:24.760Z,998.07
2019-04-11T03:23:24.941Z,998.07
2019-04-11T03:24:24.466Z,998.01
2019-04-11T03:25:24.649Z,998.10
2019-04-11T03:26:24.924Z,998.07
2019-04-11T03:27:26.061Z,998.09
2019-04-11T03:28:27.619Z,998.13
2019-04-11T03:29:24.289Z,998.14
2019-04-11T03:30:33.910Z,998.17
2019-04-11T03:32:07.430Z,998.20
2019-04-11T03:34:13.044Z,998.15
2019-04-11T03:35:16.929Z,998.19
2019-04-11T03:37:49.888Z,998.20
2019-04-11T03:38:46.853Z,998.18
2019-04-11T03:39:48.743Z,998.24
2019-04-11T03:40:43.667Z,998.24
2019-04-11T03:41:42.843Z,998.24
2019-04-11T03:42:41.667Z,998.22
2019-04-11T03:43:33.700Z,998.26
2019-04-11T03:44:30.557Z,998.24
2019-04-11T03:45:43.813Z,998.24
2019-04-11T03:46:37.680Z,998.27
2019-04-11T03:47:37.551Z,998.28
2019-04-11T03:48:36.854Z,998.28
2019-04-11T03:49:34.253Z,998.32
2019-04-11T03:50:27.974Z,998.33
2019-04-11T03:51:25.786Z,998.30
2019-04-11T03:52:25.639Z,998.33
2019-04-11T03:53:29.095Z,998.33
2019-04-11T03:54:25.216Z,998.34
2019-04-11T03:55:25.951Z,998.36
2019-04-11T03:56:24.537Z,998.37
2019-04-11T03:57:25.582Z,998.39
2019-04-11T03:58:25.767Z,998.41
2019-04-11T03:59:24.488Z,998.37
2019-04-11T04:00:29.885Z,998.42
2019-04-11T04:01:26.542Z,998.44
2019-04-11T04:02:25.170Z,998.47
2019-04-11T04:03:26.334Z,998.49
2019-04-11T04:04:26.267Z,998.51
2019-04-11T04:05:26.399Z,998.54
2019-04-11T04:06:25.557Z,998.53
2019-04-11T04:07:24.660Z,998.53
2019-04-11T04:08:26.370Z,998.54
2019-04-11T04:09:26.315Z,998.61
2019-04-11T04:10:25.769Z,998.60
2019-04-11T04:11:27.168Z,998.63
2019-04-11T04:12:24.828Z,998.62
2019-04-11T04:13:27.697Z,998.65
2019-04-11T04:14:26.225Z,998.68
2019-04-11T04:15:46.470Z,998.68
2019-04-11T04:16:32.216Z,998.68
2019-04-11T04:17:25.490Z,998.70
2019-04-11T04:18:25.074Z,998.72
2019-04-11T04:19:28.572Z,998.75
2019-04-11T04:20:26.767Z,998.77
2019-04-11T04:21:26.469Z,998.82
2019-04-11T04:22:25.187Z,998.80
2019-04-11T04:23:25.220Z,998.83
2019-04-11T04:24:25.251Z,998.83
2019-04-11T04:25:26.161Z,998.82
2019-04-11T04:26:25.649Z,998.88
2019-04-11T04:27:27.896Z,998.86
2019-04-11T04:28:27.119Z,998.83
2019-04-11T04:29:27.530Z,998.87
2019-04-11T04:30:27.682Z,998.88
2019-04-11T04:31:26.707Z,998.89
2019-04-11T04:32:25.536Z,998.93
2019-04-11T04:33:26.580Z,998.90
2019-04-11T04:34:26.011Z,998.92
2019-04-11T04:35:27.699Z,998.91
2019-04-11T04:36:27.261Z,998.87
2019-04-11T04:37:26.671Z,998.92
2019-04-11T04:38:27.191Z,998.92
2019-04-11T04:39:27.361Z,998.90
2019-04-11T04:40:42.508Z,998.90
2019-04-11T04:41:36.653Z,998.92
2019-04-11T04:42:32.225Z,998.95
2019-04-11T04:43:27.438Z,998.97
2019-04-11T04:44:26.519Z,998.94
2019-04-11T04:45:27.509Z,998.97
2019-04-11T04:46:42.301Z,999.03
2019-04-11T04:47:37.201Z,999.03
2019-04-11T04:48:27.168Z,999.02
2019-04-11T04:49:27.915Z,999.04
2019-04-11T04:50:26.800Z,999.09
2019-04-11T04:51:26.806Z,999.13
2019-04-11T04:52:27.931Z,999.11
2019-04-11T04:53:28.233Z,999.15
2019-04-11T04:54:26.296Z,999.15
2019-04-11T04:55:28.023Z,999.14
2019-04-11T04:56:30.772Z,999.17
2019-04-11T04:57:26.758Z,999.17
2019-04-11T04:58:26.624Z,999.18
2019-04-11T04:59:28.184Z,999.20
2019-04-11T05:00:28.032Z,999.22
2019-04-11T05:01:28.424Z,999.22
2019-04-11T05:02:28.342Z,999.23
2019-04-11T05:03:26.950Z,999.29
2019-04-11T05:04:27.534Z,999.28
2019-04-11T05:05:28.565Z,999.29
2019-04-11T05:06:28.109Z,999.31
2019-04-11T05:07:30.672Z,999.32
2019-04-11T05:08:27.225Z,999.35
2019-04-11T05:09:26.838Z,999.33
2019-04-11T05:10:28.364Z,999.30
2019-04-11T05:11:28.236Z,999.32
2019-04-11T05:12:28.151Z,999.32
2019-04-11T05:13:27.964Z,999.29
2019-04-11T05:14:27.519Z,999.28
2019-04-11T05:15:28.208Z,999.29
2019-04-11T05:16:27.072Z,999.34
2019-04-11T05:17:28.797Z,999.35
2019-04-11T05:18:27.949Z,999.36
2019-04-11T05:19:28.490Z,999.39
2019-04-11T05:20:28.176Z,999.38
2019-04-11T05:21:27.608Z,999.45
2019-04-11T05:22:27.285Z,999.46
2019-04-11T05:23:27.644Z,999.48
2019-04-11T05:24:28.322Z,999.48
2019-04-11T05:25:28.571Z,999.49
2019-04-11T05:26:27.873Z,999.51
2019-04-11T05:27:27.454Z,999.54
2019-04-11T05:28:27.725Z,999.51
2019-04-11T05:29:27.527Z,999.52
2019-04-11T05:30:27.566Z,999.54
2019-04-11T05:31:27.594Z,999.52
2019-04-11T05:32:27.698Z,999.55
2019-04-11T05:33:27.665Z,999.56
2019-04-11T05:34:28.042Z,999.55
2019-04-11T05:35:27.741Z,999.55
2019-04-11T05:36:28.324Z,999.62
2019-04-11T05:37:27.804Z,999.61
2019-04-11T05:38:27.839Z,999.60
2019-04-11T05:39:27.873Z,999.54
2019-04-11T05:40:28.149Z,999.57
2019-04-11T05:41:29.282Z,999.56
2019-04-11T05:42:29.153Z,999.58
2019-04-11T05:43:31.692Z,999.62
2019-04-11T05:44:28.493Z,999.64
2019-04-11T05:45:28.086Z,999.62
2019-04-11T05:46:35.466Z,999.60
2019-04-11T05:47:28.160Z,999.63
2019-04-11T05:48:28.641Z,999.60
2019-04-11T05:49:29.072Z,999.65
2019-04-11T05:50:28.521Z,999.68
2019-04-11T05:51:38.857Z,999.66
2019-04-11T05:52:31.937Z,999.68
2019-04-11T05:53:28.369Z,999.68
2019-04-11T05:54:28.407Z,999.68
2019-04-11T05:55:28.438Z,999.67
2019-04-11T05:56:28.474Z,999.64
2019-04-11T05:57:35.180Z,999.61
2019-04-11T05:58:28.544Z,999.64
2019-04-11T05:59:28.582Z,999.66
2019-04-11T06:00:28.618Z,999.66
2019-04-11T06:01:29.094Z,999.68
2019-04-11T06:02:29.006Z,999.71
2019-04-11T06:03:29.033Z,999.70
2019-04-11T06:04:30.183Z,999.71
2019-04-11T06:05:32.385Z,999.71
2019-04-11T06:06:31.900Z,999.67
2019-04-11T06:07:29.286Z,999.69
2019-04-11T06:08:30.372Z,999.68
2019-04-11T06:09:32.959Z,999.68
2019-04-11T06:10:30.204Z,999.63
2019-04-11T06:11:29.008Z,999.67
2019-04-11T06:12:29.626Z,999.62
2019-04-11T06:13:29.078Z,999.64
2019-04-11T06:14:29.126Z,999.64
2019-04-11T06:15:29.216Z,999.66
2019-04-11T06:16:36.961Z,999.61
2019-04-11T06:17:30.142Z,999.56
2019-04-11T06:18:33.075Z,999.61
2019-04-11T06:19:30.488Z,999.64
2019-04-11T06:20:29.338Z,999.64
2019-04-11T06:21:29.359Z,999.64
2019-04-11T06:22:29.752Z,999.60
2019-04-11T06:23:29.687Z,999.64
2019-04-11T06:24:29.467Z,999.65
2019-04-11T06:25:30.897Z,999.60
2019-04-11T06:26:30.404Z,999.66
2019-04-11T06:27:30.493Z,999.71
2019-04-11T06:28:30.697Z,999.67
2019-04-11T06:29:31.052Z,999.66
2019-04-11T06:30:30.476Z,999.74
2019-04-11T06:31:29.881Z,999.69
2019-04-11T06:32:29.949Z,999.74
2019-04-11T06:33:29.791Z,999.71
2019-04-11T06:34:30.435Z,999.69
2019-04-11T06:35:30.338Z,999.71
2019-04-11T06:36:30.147Z,999.71
2019-04-11T06:37:29.937Z,999.75
2019-04-11T06:38:30.337Z,999.75
2019-04-11T06:39:30.007Z,999.80
2019-04-11T06:40:30.043Z,999.76
2019-04-11T06:41:30.604Z,999.77
2019-04-11T06:42:30.285Z,999.83
2019-04-11T06:43:30.151Z,999.78
2019-04-11T06:44:30.187Z,999.72
2019-04-11T06:45:31.376Z,999.76
2019-04-11T06:46:31.382Z,999.79
2019-04-11T06:47:30.296Z,999.77
2019-04-11T06:48:30.339Z,999.80
2019-04-11T06:49:30.830Z,999.77
2019-04-11T06:50:31.294Z,999.84
2019-04-11T06:51:30.449Z,999.86
2019-04-11T06:52:30.684Z,999.85
2019-04-11T06:53:30.515Z,999.83
2019-04-11T06:54:30.751Z,999.86
2019-04-11T06:55:30.842Z,999.94
2019-04-11T06:56:30.625Z,999.92
2019-04-11T06:57:30.661Z,999.89
2019-04-11T06:58:31.759Z,999.95
2019-04-11T06:59:30.733Z,999.96
2019-04-11T07:00:31.459Z,999.94
2019-04-11T07:01:31.028Z,999.97
2019-04-11T07:02:32.045Z,999.97
2019-04-11T07:03:32.415Z,999.92
2019-04-11T07:04:30.917Z,999.94
2019-04-11T07:05:30.977Z,999.92
2019-04-11T07:06:31.433Z,999.99
2019-04-11T07:07:32.801Z,999.87
2019-04-11T07:08:32.040Z,999.91
2019-04-11T07:09:31.101Z,999.86
2019-04-11T07:10:31.141Z,999.89
2019-04-11T07:11:31.966Z,1000.06
2019-04-11T07:12:31.209Z,999.96
2019-04-11T07:13:31.255Z,1000.04
2019-04-11T07:14:31.315Z,999.94
2019-04-11T07:15:31.577Z,999.93
2019-04-11T07:16:31.361Z,999.97
2019-04-11T07:17:31.749Z,999.98
2019-04-11T07:18:31.428Z,1000.00
2019-04-11T07:19:31.468Z,1000.05
2019-04-11T07:20:31.506Z,999.98
2019-04-11T07:21:31.541Z,1000.02
2019-04-11T07:22:32.667Z,999.99
2019-04-11T07:23:32.772Z,1000.03
2019-04-11T07:24:32.333Z,1000.02
2019-04-11T07:25:31.687Z,1000.08
2019-04-11T07:26:32.964Z,1000.04
2019-04-11T07:27:32.289Z,1000.10
2019-04-11T07:28:31.799Z,1000.07
2019-04-11T07:29:31.835Z,1000.07
2019-04-11T07:30:33.181Z,1000.07
2019-04-11T07:31:32.056Z,1000.10
2019-04-11T07:32:32.019Z,1000.20
2019-04-11T07:33:33.257Z,1000.13
2019-04-11T07:34:35.106Z,1000.10
2019-04-11T07:35:32.064Z,1000.12
2019-04-11T07:36:32.098Z,1000.13
2019-04-11T07:37:32.570Z,1000.09
2019-04-11T07:38:32.181Z,1000.13
2019-04-11T07:39:33.651Z,1000.09
2019-04-11T07:40:33.296Z,1000.11
2019-04-11T07:41:32.283Z,1000.21
2019-04-11T07:42:34.146Z,1000.17
2019-04-11T07:43:33.511Z,1000.12
2019-04-11T07:44:32.460Z,1000.18
2019-04-11T07:45:32.428Z,1000.28
2019-04-11T07:46:32.862Z,1000.29
2019-04-11T07:47:32.503Z,1000.22
2019-04-11T07:48:33.730Z,1000.27
2019-04-11T07:49:32.920Z,1000.23
2019-04-11T07:50:33.326Z,1000.21
2019-04-11T07:51:32.660Z,1000.22
2019-04-11T07:52:33.297Z,1000.22
2019-04-11T07:53:33.713Z,1000.29
2019-04-11T07:54:32.764Z,1000.35
2019-04-11T07:55:32.801Z,1000.29
2019-04-11T07:56:33.192Z,1000.21
2019-04-11T07:57:32.997Z,1000.29
2019-04-11T07:58:33.041Z,1000.32
2019-04-11T07:59:33.857Z,1000.36
2019-04-11T08:00:39.904Z,1000.29
2019-04-11T08:01:33.888Z,1000.28
2019-04-11T08:02:33.348Z,1000.33
2019-04-11T08:03:33.109Z,1000.41
2019-04-11T08:04:33.137Z,1000.42
2019-04-11T08:05:34.442Z,1000.41
2019-04-11T08:06:33.391Z,1000.41
2019-04-11T08:07:33.257Z,1000.37
2019-04-11T08:08:34.449Z,1000.35
2019-04-11T08:09:33.542Z,1000.39
2019-04-11T08:10:33.361Z,1000.42
2019-04-11T08:11:33.869Z,1000.37
2019-04-11T08:12:33.861Z,1000.41
2019-04-11T08:13:34.638Z,1000.41
2019-04-11T08:14:33.512Z,1000.46
2019-04-11T08:15:33.572Z,1000.35
2019-04-11T08:16:33.585Z,1000.46
2019-04-11T08:17:37.642Z,1000.41
2019-04-11T08:18:34.919Z,1000.45
2019-04-11T08:19:33.698Z,1000.47
2019-04-11T08:20:33.734Z,1000.49
2019-04-11T08:21:35.700Z,1000.53
2019-04-11T08:22:34.988Z,1000.43
2019-04-11T08:23:33.906Z,1000.31
2019-04-11T08:24:34.486Z,1000.39
2019-04-11T08:25:33.920Z,1000.43
2019-04-11T08:26:33.989Z,1000.55
2019-04-11T08:27:33.996Z,1000.51
2019-04-11T08:28:35.461Z,1000.36
2019-04-11T08:29:34.127Z,1000.42
2019-04-11T08:30:35.006Z,1000.44
2019-04-11T08:31:34.145Z,1000.49
2019-04-11T08:32:34.183Z,1000.42
2019-04-11T08:33:35.114Z,1000.47
2019-04-11T08:34:35.331Z,1000.47
2019-04-11T08:35:34.943Z,1000.45
2019-04-11T08:36:34.342Z,1000.47
2019-04-11T08:37:34.370Z,1000.44
2019-04-11T08:38:34.415Z,1000.51
2019-04-11T08:39:35.297Z,1000.50
2019-04-11T08:40:35.526Z,1000.48
2019-04-11T08:41:35.760Z,1000.49
2019-04-11T08:42:37.213Z,1000.58
2019-04-11T08:43:35.244Z,1000.54
2019-04-11T08:44:34.637Z,1000.47
2019-04-11T08:45:34.669Z,1000.58
2019-04-11T08:46:35.122Z,1000.61
2019-04-11T08:47:46.503Z,1000.69
2019-04-11T08:48:35.152Z,1000.64
2019-04-11T08:49:35.098Z,1000.63
2019-04-11T08:50:34.859Z,1000.61
2019-04-11T08:51:35.696Z,1000.67
2019-04-11T08:52:36.044Z,1000.65
2019-04-11T08:53:35.124Z,1000.65
2019-04-11T08:54:35.010Z,1000.80
2019-04-11T08:55:45.660Z,1000.65
2019-04-11T08:56:35.186Z,1000.60
2019-04-11T08:57:36.156Z,1000.69
2019-04-11T08:58:36.339Z,1000.57
2019-04-11T08:59:35.853Z,1000.59
2019-04-11T09:00:35.255Z,1000.64
2019-04-11T09:01:36.008Z,1000.57
2019-04-11T09:02:35.456Z,1000.60
2019-04-11T09:03:35.352Z,1000.55
2019-04-11T09:04:36.450Z,1000.64
2019-04-11T09:05:35.549Z,1000.55
2019-04-11T09:06:36.880Z,1000.54
2019-04-11T09:07:35.995Z,1000.51
2019-04-11T09:08:35.549Z,1000.52
2019-04-11T09:09:37.692Z,1000.56
2019-04-11T09:10:35.889Z,1000.56
2019-04-11T09:11:38.803Z,1000.56
2019-04-11T09:12:36.414Z,1000.62
2019-04-11T09:13:35.738Z,1000.56
2019-04-11T09:14:36.060Z,1000.61
2019-04-11T09:15:37.003Z,1000.62
2019-04-11T09:16:35.844Z,1000.55
2019-04-11T09:17:36.652Z,1000.59
2019-04-11T09:18:36.460Z,1000.63
2019-04-11T09:19:35.959Z,1000.68
2019-04-11T09:20:36.004Z,1000.55
2019-04-11T09:21:36.267Z,1000.57
2019-04-11T09:22:37.280Z,1000.54
2019-04-11T09:23:36.110Z,1000.55
2019-04-11T09:24:36.785Z,1000.55
2019-04-11T09:25:37.038Z,1000.62
2019-04-11T09:26:36.225Z,1000.63
2019-04-11T09:27:36.579Z,1000.70
2019-04-11T09:28:37.561Z,1000.78
2019-04-11T09:29:36.342Z,1000.74
2019-04-11T09:30:36.857Z,1000.72
2019-04-11T09:31:36.417Z,1000.68
2019-04-11T09:32:36.506Z,1000.62
2019-04-11T09:33:38.072Z,1000.67
2019-04-11T09:34:37.614Z,1000.63
2019-04-11T09:35:37.400Z,1000.70
2019-04-11T09:36:36.890Z,1000.74
2019-04-11T09:37:37.804Z,1000.71
2019-04-11T09:38:36.704Z,1000.72
2019-04-11T09:39:37.259Z,1000.63
2019-04-11T09:40:36.765Z,1000.63
2019-04-11T09:41:36.804Z,1000.60
2019-04-11T09:42:36.842Z,1000.64
2019-04-11T09:44:37.903Z,1000.60
2019-04-11T09:45:37.467Z,1000.58
2019-04-11T09:46:36.999Z,1000.66
2019-04-11T09:47:38.278Z,1000.68
2019-04-11T09:48:37.920Z,1000.70
2019-04-11T09:49:37.685Z,1000.57
2019-04-11T09:50:37.336Z,1000.77
2019-04-11T09:51:38.009Z,1000.90
2019-04-11T09:52:37.241Z,1000.79
2019-04-11T09:53:37.273Z,1000.79
2019-04-11T09:54:37.320Z,1000.70
2019-04-11T09:55:37.529Z,1000.69
2019-04-11T09:56:37.881Z,1000.75
2019-04-11T09:57:37.664Z,1000.75
2019-04-11T09:58:37.918Z,1000.69
2019-04-11T09:59:37.531Z,1000.66
2019-04-11T10:00:38.795Z,1000.68
2019-04-11T10:01:37.586Z,1000.48
2019-04-11T10:02:37.625Z,1000.51
2019-04-11T10:03:38.759Z,1000.53
2019-04-11T10:04:37.705Z,1000.61
2019-04-11T10:05:38.290Z,1000.61
2019-04-11T10:06:38.876Z,1000.66
2019-04-11T10:07:37.823Z,1000.65
2019-04-11T10:08:37.863Z,1000.57
2019-04-11T10:09:37.926Z,1000.61
2019-04-11T10:10:40.693Z,1000.49
2019-04-11T10:11:38.126Z,1000.48
2019-04-11T10:12:38.305Z,1000.43
2019-04-11T10:13:38.059Z,1000.52
2019-04-11T10:14:38.103Z,1000.46
2019-04-11T10:15:38.139Z,1000.47
2019-04-11T10:16:38.182Z,1000.47
2019-04-11T10:17:38.223Z,1000.52
2019-04-11T10:18:40.525Z,1000.51
2019-04-11T10:19:38.395Z,1000.43
2019-04-11T10:20:38.334Z,1000.35
2019-04-11T10:21:39.477Z,1000.42
2019-04-11T10:22:38.428Z,1000.42
2019-04-11T10:23:38.643Z,1000.46
2019-04-11T10:24:38.782Z,1000.31
2019-04-11T10:25:39.372Z,1000.45
2019-04-11T10:26:38.570Z,1000.37
2019-04-11T10:27:38.750Z,1000.31
2019-04-11T10:28:39.564Z,1000.41
2019-04-11T10:29:39.792Z,1000.37
2019-04-11T10:30:39.815Z,1000.42
2019-04-11T10:31:38.946Z,1000.37
2019-04-11T10:32:39.297Z,1000.37
2019-04-11T10:33:39.369Z,1000.34
2019-04-11T10:34:38.888Z,1000.39
2019-04-11T10:35:38.925Z,1000.43
2019-04-11T10:36:39.085Z,1000.32
2019-04-11T10:37:40.064Z,1000.46
2019-04-11T10:38:39.041Z,1000.45
2019-04-11T10:39:39.598Z,1000.47
2019-04-11T10:40:39.911Z,1000.51
2019-04-11T10:41:40.014Z,1000.51
2019-04-11T10:42:39.199Z,1000.55
2019-04-11T10:43:40.362Z,1000.40
2019-04-11T10:44:40.289Z,1000.40
2019-04-11T10:45:39.567Z,1000.55
2019-04-11T10:46:39.654Z,1000.52
2019-04-11T10:47:39.399Z,1000.47
2019-04-11T10:48:42.516Z,1000.51
2019-04-11T10:49:39.472Z,1000.59
2019-04-11T10:50:40.304Z,1000.46
2019-04-11T10:51:40.771Z,1000.46
2019-04-11T10:52:39.591Z,1000.46
2019-04-11T10:53:39.641Z,1000.43
2019-04-11T10:54:40.797Z,1000.39
2019-04-11T10:55:39.920Z,1000.33
2019-04-11T10:56:39.753Z,1000.38
2019-04-11T10:57:40.383Z,1000.45
2019-04-11T10:58:40.673Z,1000.43
2019-04-11T10:59:40.791Z,1000.36
2019-04-11T11:00:39.907Z,1000.44
2019-04-11T11:01:40.229Z,1000.35
2019-04-11T11:02:39.993Z,1000.38
2019-04-11T11:03:40.025Z,1000.38
2019-04-11T11:04:41.001Z,1000.34
2019-04-11T11:05:40.201Z,1000.32
2019-04-11T11:06:40.145Z,1000.25
2019-04-11T11:07:40.563Z,1000.38
2019-04-11T11:08:40.225Z,1000.27
2019-04-11T11:09:40.314Z,1000.33
2019-04-11T11:10:40.302Z,1000.21
2019-04-11T11:11:40.854Z,1000.24
2019-04-11T11:12:41.451Z,1000.25
2019-04-11T11:13:40.748Z,1000.24
2019-04-11T11:14:40.459Z,1000.24
2019-04-11T11:15:40.499Z,1000.29
2019-04-11T11:16:44.397Z,1000.29
2019-04-11T11:17:57.105Z,1000.22
2019-04-11T11:19:03.617Z,1000.28
2019-04-11T11:19:55.178Z,1000.20
2019-04-11T11:20:48.218Z,1000.30
2019-04-11T11:21:40.860Z,1000.25
2019-04-11T11:22:41.905Z,1000.25
2019-04-11T11:23:41.069Z,1000.35
2019-04-11T11:24:42.055Z,1000.21
2019-04-11T11:25:42.262Z,1000.31
2019-04-11T11:26:41.193Z,1000.38
2019-04-11T11:27:41.620Z,1000.33
2019-04-11T11:28:41.094Z,1000.38
2019-04-11T11:29:41.049Z,1000.39
2019-04-11T11:30:41.088Z,1000.40
2019-04-11T11:31:41.135Z,1000.42
2019-04-11T11:32:41.232Z,1000.47
2019-04-11T11:33:41.204Z,1000.48
2019-04-11T11:34:41.251Z,1000.44
2019-04-11T11:35:42.848Z,1000.56
2019-04-11T11:36:41.603Z,1000.47
2019-04-11T11:37:41.692Z,1000.41
2019-04-11T11:38:41.861Z,1000.44
2019-04-11T11:39:41.451Z,1000.38
2019-04-11T11:40:43.132Z,1000.44
2019-04-11T11:41:42.517Z,1000.42
2019-04-11T11:42:42.154Z,1000.56
2019-04-11T11:43:41.595Z,1000.54
2019-04-11T11:44:41.635Z,1000.51
2019-04-11T11:45:41.739Z,1000.50
2019-04-11T11:46:42.634Z,1000.52
2019-04-11T11:47:43.079Z,1000.44
2019-04-11T11:48:41.867Z,1000.50
2019-04-11T11:49:51.884Z,1000.45
2019-04-11T11:50:42.719Z,1000.48
2019-04-11T11:51:41.903Z,1000.47
2019-04-11T11:52:42.836Z,1000.49
2019-04-11T11:53:42.802Z,1000.48
2019-04-11T11:54:42.023Z,1000.48
2019-04-11T11:55:43.134Z,1000.52
2019-04-11T11:56:42.506Z,1000.50
2019-04-11T11:57:42.715Z,1000.49
2019-04-11T11:58:43.740Z,1000.44
2019-04-11T11:59:42.883Z,1000.49
2019-04-11T12:00:42.350Z,1000.39
2019-04-11T12:01:46.491Z,1000.47
2019-04-11T12:02:42.450Z,1000.35
2019-04-11T12:03:42.505Z,1000.40
2019-04-11T12:04:42.409Z,1000.32
2019-04-11T12:05:48.036Z,1000.36
2019-04-11T12:06:43.039Z,1000.35
2019-04-11T12:07:43.071Z,1000.40
2019-04-11T12:08:46.649Z,1000.49
2019-04-11T12:09:42.625Z,1000.50
2019-04-11T12:10:43.713Z,1000.45
2019-04-11T12:11:42.688Z,1000.45
2019-04-11T12:12:42.724Z,1000.40
2019-04-11T12:13:43.288Z,1000.38
2019-04-11T12:14:44.970Z,1000.51
2019-04-11T12:15:43.505Z,1000.48
2019-04-11T12:16:43.833Z,1000.50
2019-04-11T12:17:42.919Z,1000.64
2019-04-11T12:18:48.070Z,1000.58
2019-04-11T12:19:52.320Z,1000.58
2019-04-11T12:20:44.902Z,1000.51
2019-04-11T12:21:45.825Z,1000.47
2019-04-11T12:22:44.316Z,1000.43